Time;durP1;ratioP1;P1;durP2;ratioP2;P2;SDS_P1;SDS_P2;PMS_P1;PMS_P2;Temp;Humidity;BMP_temperature;BMP_pressure;BME280_temperature;BME280_humidity;BME280_pressure;Samples;Min_cycle;Max_cycle;Signal;HPM_P1;HPM_P2
2022/04/23 00:01:07;;;;;;;35.20;15.75;;;;;;;;;;4938407;29;20047;-88
2022/04/23 00:03:34;;;;;;;36.83;16.23;;;;;;;;;;4937204;29;20496;-88
2022/04/23 00:06:02;;;;;;;36.80;16.67;;;;;;;;;;4939440;29;20552;-89
2022/04/23 00:08:30;;;;;;;34.90;16.75;;;;;;;;;;4940166;29;20047;-89
2022/04/23 00:10:58;;;;;;;33.42;15.73;;;;;;;;;;4936269;29;20063;-88
2022/04/23 00:13:26;;;;;;;31.25;16.13;;;;;;;;;;4936292;29;20075;-87
2022/04/23 00:15:53;;;;;;;35.40;15.43;;;;;;;;;;4938605;29;21532;-88
2022/04/23 00:18:21;;;;;;;32.13;15.95;;;;;;;;;;4938519;29;20468;-88
2022/04/23 00:20:48;;;;;;;40.35;17.13;;;;;;;;;;4937357;29;20098;-89
2022/04/23 00:23:16;;;;;;;35.63;15.73;;;;;;;;;;4945949;29;20102;-88
2022/04/23 00:25:45;;;;;;;33.80;15.30;;;;;;;;;;4944833;29;20493;-87
2022/04/23 00:28:13;;;;;;;36.78;16.05;;;;;;;;;;4945082;29;20463;-88
2022/04/23 00:30:40;;;;;;;29.95;15.68;;;;;;;;;;4937840;29;20048;-88
2022/04/23 00:33:09;;;;;;;33.38;16.17;;;;;;;;;;4935251;29;20168;-87
2022/04/23 00:35:37;;;;;;;35.42;15.82;;;;;;;;;;4954454;28;20512;-88
2022/04/23 00:38:05;;;;;;;37.33;17.05;;;;;;;;;;4937676;29;20055;-87
2022/04/23 00:40:33;;;;;;;39.88;17.42;;;;;;;;;;4954112;28;20082;-87
2022/04/23 00:43:01;;;;;;;36.22;15.95;;;;;;;;;;4949309;29;20438;-87
2022/04/23 00:45:28;;;;;;;36.53;17.30;;;;;;;;;;4936974;29;20075;-87
2022/04/23 00:47:56;;;;;;;36.35;16.95;;;;;;;;;;4937559;29;20102;-87
2022/04/23 00:50:23;;;;;;;35.42;17.42;;;;;;;;;;4936572;29;20082;-86
2022/04/23 00:52:53;;;;;;;35.70;16.63;;;;;;;;;;4936804;29;20059;-87
2022/04/23 00:55:20;;;;;;;41.67;16.55;;;;;;;;;;4930516;29;20153;-87
2022/04/23 00:57:47;;;;;;;38.83;17.17;;;;;;;;;;4936716;29;20451;-87
2022/04/23 01:00:15;;;;;;;34.95;17.50;;;;;;;;;;4937101;29;20217;-87
2022/04/23 01:02:42;;;;;;;33.40;17.13;;;;;;;;;;4954102;29;20047;-88
2022/04/23 01:05:10;;;;;;;34.38;17.50;;;;;;;;;;4943323;29;20059;-87
2022/04/23 01:07:38;;;;;;;39.53;17.80;;;;;;;;;;4936669;29;20102;-87
2022/04/23 01:10:06;;;;;;;40.90;17.55;;;;;;;;;;4936291;29;20058;-87
2022/04/23 01:12:35;;;;;;;40.58;16.38;;;;;;;;;;4957156;28;20059;-87
2022/04/23 01:15:02;;;;;;;40.28;19.15;;;;;;;;;;4934473;29;20071;-86
2022/04/23 01:17:30;;;;;;;42.72;17.05;;;;;;;;;;4936301;29;20055;-87
2022/04/23 01:19:57;;;;;;;37.35;16.80;;;;;;;;;;4954325;29;20047;-88
2022/04/23 01:22:24;;;;;;;31.30;16.83;;;;;;;;;;4936301;29;20083;-88
2022/04/23 01:24:54;;;;;;;41.88;17.50;;;;;;;;;;4936218;29;20143;-88
2022/04/23 01:27:25;;;;;;;32.47;16.80;;;;;;;;;;4936883;29;20043;-88
2022/04/23 01:29:53;;;;;;;36.35;17.50;;;;;;;;;;4932840;29;20453;-87
2022/04/23 01:32:20;;;;;;;35.97;17.17;;;;;;;;;;4956335;28;20055;-88
2022/04/23 01:34:47;;;;;;;35.75;16.85;;;;;;;;;;4954055;29;20086;-88
2022/04/23 01:37:14;;;;;;;48.35;16.73;;;;;;;;;;4939507;29;20063;-88
2022/04/23 01:39:41;;;;;;;41.55;17.95;;;;;;;;;;4960938;29;20047;-88
2022/04/23 01:42:09;;;;;;;30.80;16.70;;;;;;;;;;4928869;29;20134;-88
2022/04/23 01:44:36;;;;;;;33.65;17.67;;;;;;;;;;4939494;29;20098;-88
2022/04/23 01:47:04;;;;;;;41.45;16.60;;;;;;;;;;4956666;29;20051;-88
2022/04/23 01:49:31;;;;;;;39.13;16.83;;;;;;;;;;4938711;29;20807;-88
2022/04/23 01:51:59;;;;;;;45.40;17.73;;;;;;;;;;4938080;29;20059;-88
2022/04/23 01:54:26;;;;;;;41.17;16.70;;;;;;;;;;4936933;29;20074;-87
2022/04/23 01:56:56;;;;;;;40.03;16.98;;;;;;;;;;4935430;29;20442;-88
2022/04/23 01:59:27;;;;;;;37.33;17.77;;;;;;;;;;4931247;29;20051;-87
2022/04/23 02:01:54;;;;;;;35.58;17.73;;;;;;;;;;4931197;29;20052;-89
2022/04/23 02:04:22;;;;;;;39.70;17.77;;;;;;;;;;4947202;29;20047;-89
2022/04/23 02:06:49;;;;;;;37.20;17.88;;;;;;;;;;4924045;29;20051;-88
2022/04/23 02:09:17;;;;;;;35.13;18.52;;;;;;;;;;4937421;29;20082;-88
2022/04/23 02:11:45;;;;;;;39.63;18.75;;;;;;;;;;4939789;29;20043;-87
2022/04/23 02:14:13;;;;;;;38.95;16.90;;;;;;;;;;4940181;29;20078;-87
2022/04/23 02:16:41;;;;;;;47.10;17.98;;;;;;;;;;4943282;29;20050;-87
2022/04/23 02:19:12;;;;;;;36.40;16.23;;;;;;;;;;4939366;29;20078;-87
2022/04/23 02:21:39;;;;;;;35.78;17.48;;;;;;;;;;4956615;28;20078;-87
2022/04/23 02:24:08;;;;;;;35.42;16.52;;;;;;;;;;4939593;29;20134;-86
2022/04/23 02:26:35;;;;;;;34.38;16.70;;;;;;;;;;4936208;29;20055;-87
2022/04/23 02:29:03;;;;;;;39.47;15.48;;;;;;;;;;4938236;29;20082;-86
2022/04/23 02:31:30;;;;;;;37.33;16.05;;;;;;;;;;4951246;29;20512;-88
2022/04/23 02:33:57;;;;;;;38.08;17.42;;;;;;;;;;4938988;29;20069;-87
2022/04/23 02:36:25;;;;;;;31.27;15.50;;;;;;;;;;4939693;29;20488;-88
2022/04/23 02:38:52;;;;;;;33.78;15.13;;;;;;;;;;4940497;29;20400;-88
2022/04/23 02:41:19;;;;;;;37.40;17.13;;;;;;;;;;4939166;29;20509;-88
2022/04/23 02:43:46;;;;;;;32.03;16.00;;;;;;;;;;4939246;29;20162;-88
2022/04/23 02:46:15;;;;;;;33.95;16.02;;;;;;;;;;4947468;29;20205;-88
2022/04/23 02:48:44;;;;;;;29.23;13.85;;;;;;;;;;4940100;29;20058;-88
2022/04/23 02:51:15;;;;;;;38.30;16.77;;;;;;;;;;4932927;29;20106;-88
2022/04/23 02:53:43;;;;;;;33.60;16.88;;;;;;;;;;4944978;29;20102;-87
2022/04/23 02:56:16;;;;;;;37.00;16.42;;;;;;;;;;4960036;28;20067;-87
2022/04/23 02:58:44;;;;;;;33.83;17.20;;;;;;;;;;4958016;29;20062;-87
2022/04/23 03:01:11;;;;;;;43.08;15.95;;;;;;;;;;4937894;29;20125;-87
2022/04/23 03:03:42;;;;;;;28.05;14.77;;;;;;;;;;4938645;29;20065;-87
2022/04/23 03:06:10;;;;;;;41.72;16.92;;;;;;;;;;4932721;29;20052;-87
2022/04/23 03:08:38;;;;;;;41.53;15.93;;;;;;;;;;4939914;29;20052;-87
2022/04/23 03:11:06;;;;;;;43.03;16.73;;;;;;;;;;4934502;29;20070;-87
2022/04/23 03:13:35;;;;;;;41.50;17.98;;;;;;;;;;4949238;29;20055;-88
2022/04/23 03:16:03;;;;;;;34.63;16.77;;;;;;;;;;4947318;28;20051;-88
2022/04/23 03:18:31;;;;;;;34.50;18.05;;;;;;;;;;4940018;29;20135;-88
2022/04/23 03:20:58;;;;;;;37.22;15.65;;;;;;;;;;4938879;29;20473;-87
2022/04/23 03:23:25;;;;;;;41.45;16.27;;;;;;;;;;4946980;29;20130;-88
2022/04/23 03:25:53;;;;;;;35.53;16.10;;;;;;;;;;4940028;29;20114;-87
2022/04/23 03:28:20;;;;;;;31.88;15.77;;;;;;;;;;4956066;29;20055;-86
2022/04/23 03:30:47;;;;;;;40.90;16.83;;;;;;;;;;4954509;29;20102;-86
2022/04/23 03:33:16;;;;;;;35.85;17.83;;;;;;;;;;4937163;29;20071;-86
2022/04/23 03:35:44;;;;;;;36.50;16.98;;;;;;;;;;4938785;29;20456;-86
2022/04/23 03:38:11;;;;;;;44.47;19.15;;;;;;;;;;4938645;29;20134;-86
2022/04/23 03:40:39;;;;;;;39.22;18.48;;;;;;;;;;4938289;29;20090;-87
2022/04/23 03:43:06;;;;;;;42.10;19.10;;;;;;;;;;4936772;29;20126;-87
2022/04/23 03:45:33;;;;;;;40.55;19.20;;;;;;;;;;4937213;29;20050;-87
2022/04/23 03:48:02;;;;;;;38.80;16.30;;;;;;;;;;4950243;28;20470;-86
2022/04/23 03:50:33;;;;;;;44.67;18.35;;;;;;;;;;4953497;29;20552;-87
2022/04/23 03:53:00;;;;;;;36.42;16.98;;;;;;;;;;4955427;28;20516;-87
2022/04/23 03:55:27;;;;;;;32.20;15.27;;;;;;;;;;4940446;29;20153;-87
2022/04/23 03:57:55;;;;;;;37.88;14.55;;;;;;;;;;4938209;29;20776;-88
2022/04/23 04:00:22;;;;;;;34.92;13.70;;;;;;;;;;4938679;29;20055;-88
2022/04/23 04:02:54;;;;;;;28.85;12.93;;;;;;;;;;4938500;29;20109;-87
2022/04/23 04:05:23;;;;;;;31.25;14.80;;;;;;;;;;4935579;29;20047;-87
2022/04/23 04:07:50;;;;;;;39.03;16.75;;;;;;;;;;4942843;29;20095;-88
2022/04/23 04:10:18;;;;;;;33.60;16.63;;;;;;;;;;4952891;29;20548;-87
2022/04/23 04:12:46;;;;;;;33.33;15.50;;;;;;;;;;4929651;29;20131;-87
2022/04/23 04:15:17;;;;;;;31.83;15.20;;;;;;;;;;4948547;29;20059;-87
2022/04/23 04:17:46;;;;;;;29.60;15.25;;;;;;;;;;4937231;28;20055;-87
2022/04/23 04:20:13;;;;;;;31.77;16.00;;;;;;;;;;4954229;28;20055;-87
2022/04/23 04:22:44;;;;;;;38.08;17.67;;;;;;;;;;4954557;29;20075;-88
2022/04/23 04:25:13;;;;;;;32.15;15.23;;;;;;;;;;4946739;29;20493;-87
2022/04/23 04:27:41;;;;;;;28.17;14.77;;;;;;;;;;4943007;29;20138;-86
2022/04/23 04:30:09;;;;;;;26.42;14.32;;;;;;;;;;4942737;28;20078;-87
2022/04/23 04:32:36;;;;;;;34.33;15.05;;;;;;;;;;4945225;28;20126;-86
2022/04/23 04:35:04;;;;;;;33.60;15.30;;;;;;;;;;4936113;29;20462;-87
2022/04/23 04:37:31;;;;;;;33.70;15.30;;;;;;;;;;4943125;29;20110;-87
2022/04/23 04:39:58;;;;;;;26.98;14.13;;;;;;;;;;4953136;29;20055;-87
2022/04/23 04:42:25;;;;;;;26.52;15.02;;;;;;;;;;4933536;29;20082;-87
2022/04/23 04:44:58;;;;;;;29.35;14.18;;;;;;;;;;4919102;29;20047;-87
2022/04/23 04:47:26;;;;;;;28.77;13.82;;;;;;;;;;4931837;29;20103;-87
2022/04/23 04:49:53;;;;;;;29.48;14.35;;;;;;;;;;4936977;29;20051;-87
2022/04/23 04:52:20;;;;;;;37.33;15.13;;;;;;;;;;4934011;29;20106;-88
2022/04/23 04:54:52;;;;;;;29.13;15.60;;;;;;;;;;4937979;29;20102;-87
2022/04/23 04:57:19;;;;;;;36.45;15.45;;;;;;;;;;4953731;29;20141;-87
2022/04/23 04:59:47;;;;;;;31.80;14.55;;;;;;;;;;4936474;29;20133;-86
2022/04/23 05:02:14;;;;;;;29.90;14.00;;;;;;;;;;4933009;29;20086;-86
2022/04/23 05:04:42;;;;;;;29.60;14.23;;;;;;;;;;4935557;29;20121;-87
2022/04/23 05:07:09;;;;;;;36.65;14.40;;;;;;;;;;4941211;29;20078;-88
2022/04/23 05:09:36;;;;;;;29.92;14.77;;;;;;;;;;4940383;29;20834;-87
2022/04/23 05:12:03;;;;;;;29.60;14.85;;;;;;;;;;4946222;29;20130;-88
2022/04/23 05:14:31;;;;;;;29.33;14.65;;;;;;;;;;4937155;29;20055;-87
2022/04/23 05:16:58;;;;;;;26.73;15.65;;;;;;;;;;4929299;29;20087;-88
2022/04/23 05:19:25;;;;;;;25.88;13.93;;;;;;;;;;4941086;29;20055;-87
2022/04/23 05:21:52;;;;;;;30.25;15.50;;;;;;;;;;4936540;29;20460;-88
2022/04/23 05:24:20;;;;;;;28.90;15.05;;;;;;;;;;4935199;29;20051;-86
2022/04/23 05:26:52;;;;;;;31.98;15.95;;;;;;;;;;4936578;29;20075;-85
2022/04/23 05:29:20;;;;;;;30.48;16.17;;;;;;;;;;4917800;29;20098;-84
2022/04/23 05:31:47;;;;;;;28.83;16.52;;;;;;;;;;4939138;28;20663;-85
2022/04/23 05:34:14;;;;;;;33.75;16.08;;;;;;;;;;4935567;29;20047;-86
2022/04/23 05:36:41;;;;;;;34.85;16.45;;;;;;;;;;4930818;29;20134;-84
2022/04/23 05:39:09;;;;;;;31.05;16.42;;;;;;;;;;4934200;29;20159;-86
2022/04/23 05:41:36;;;;;;;31.35;16.63;;;;;;;;;;4941301;28;20552;-87
2022/04/23 05:44:03;;;;;;;35.13;16.38;;;;;;;;;;4935354;29;20075;-87
2022/04/23 05:46:30;;;;;;;30.98;16.65;;;;;;;;;;4935140;29;20126;-85
2022/04/23 05:48:59;;;;;;;34.33;18.30;;;;;;;;;;4932587;29;20537;-87
2022/04/23 05:51:27;;;;;;;34.70;18.52;;;;;;;;;;4947243;29;20105;-86
2022/04/23 05:53:54;;;;;;;34.08;17.90;;;;;;;;;;4932558;29;20060;-88
2022/04/23 05:56:21;;;;;;;39.70;19.40;;;;;;;;;;4934889;29;20122;-88
2022/04/23 05:58:48;;;;;;;38.97;19.15;;;;;;;;;;4934831;29;20174;-88
2022/04/23 06:01:16;;;;;;;40.88;19.00;;;;;;;;;;4934470;29;20087;-88
2022/04/23 06:03:43;;;;;;;54.83;20.80;;;;;;;;;;4943418;28;20374;-88
2022/04/23 06:06:10;;;;;;;41.10;20.00;;;;;;;;;;4934874;29;20082;-88
2022/04/23 06:08:42;;;;;;;40.50;20.10;;;;;;;;;;4940459;29;20082;-89
2022/04/23 06:11:09;;;;;;;38.58;19.23;;;;;;;;;;4935720;29;20118;-89
2022/04/23 06:13:36;;;;;;;35.20;19.90;;;;;;;;;;4935334;29;20129;-87
2022/04/23 06:16:04;;;;;;;42.70;19.83;;;;;;;;;;4937072;29;20047;-89
2022/04/23 06:18:31;;;;;;;42.45;19.65;;;;;;;;;;4954655;28;20448;-90
2022/04/23 06:20:58;;;;;;;41.20;19.08;;;;;;;;;;4937427;29;20788;-91
2022/04/23 06:23:26;;;;;;;33.40;18.73;;;;;;;;;;4950810;29;20318;-90
2022/04/23 06:25:53;;;;;;;31.13;16.98;;;;;;;;;;4933941;29;20841;-89
2022/04/23 06:28:20;;;;;;;32.97;16.90;;;;;;;;;;4936072;29;20445;-90
2022/04/23 06:30:47;;;;;;;26.67;14.38;;;;;;;;;;4934211;29;20052;-85
2022/04/23 06:33:16;;;;;;;27.83;14.02;;;;;;;;;;4934234;29;20059;-88
2022/04/23 06:35:43;;;;;;;27.05;14.88;;;;;;;;;;4934309;29;20055;-89
2022/04/23 06:38:11;;;;;;;25.30;15.05;;;;;;;;;;4935653;29;20449;-88
2022/04/23 06:40:39;;;;;;;23.52;13.93;;;;;;;;;;4936724;29;20067;-89
2022/04/23 06:43:06;;;;;;;22.63;14.00;;;;;;;;;;4938819;29;20118;-91
2022/04/23 06:45:33;;;;;;;24.05;14.07;;;;;;;;;;4934755;29;20071;-90
2022/04/23 06:48:04;;;;;;;21.25;13.40;;;;;;;;;;4937946;29;20050;-92
2022/04/23 06:50:32;;;;;;;22.73;12.25;;;;;;;;;;4937076;29;20057;-92
2022/04/23 06:53:00;;;;;;;23.52;13.43;;;;;;;;;;4937890;29;20059;-92
2022/04/23 06:55:28;;;;;;;19.45;14.07;;;;;;;;;;4939209;29;20115;-91
2022/04/23 06:57:55;;;;;;;17.20;12.48;;;;;;;;;;4939088;29;20459;-90
2022/04/23 07:00:23;;;;;;;18.10;12.55;;;;;;;;;;4939235;29;20055;-91
2022/04/23 07:02:53;;;;;;;19.90;12.70;;;;;;;;;;4954144;29;20434;-88
2022/04/23 07:05:21;;;;;;;21.75;12.80;;;;;;;;;;4942684;28;20066;-88
2022/04/23 07:07:57;;;;;;;23.70;12.30;;;;;;;;;;4938348;29;20556;-91
2022/04/23 07:10:28;;;;;;;24.25;12.27;;;;;;;;;;4935099;29;20098;-88
2022/04/23 07:12:56;;;;;;;16.15;11.38;;;;;;;;;;4919939;29;20103;-86
2022/04/23 07:15:24;;;;;;;18.95;12.75;;;;;;;;;;4930876;29;20106;-86
2022/04/23 07:17:52;;;;;;;19.08;12.25;;;;;;;;;;4957028;28;20103;-86
2022/04/23 07:20:19;;;;;;;17.00;12.00;;;;;;;;;;4939486;29;20130;-89
2022/04/23 07:25:34;;;;;;;14.85;11.77;;;;;;;;;;4953930;29;20100;-86
2022/04/23 07:28:01;;;;;;;18.75;13.05;;;;;;;;;;4937786;29;20894;-86
2022/04/23 07:30:29;;;;;;;18.85;12.50;;;;;;;;;;4936784;29;20059;-87
2022/04/23 07:32:57;;;;;;;18.33;11.77;;;;;;;;;;4954974;29;20090;-87
2022/04/23 07:38:11;;;;;;;17.15;12.77;;;;;;;;;;4954114;29;20051;-89
2022/04/23 07:40:40;;;;;;;17.23;11.63;;;;;;;;;;4937113;29;20114;-90
2022/04/23 07:43:11;;;;;;;16.48;11.55;;;;;;;;;;4953986;29;20055;-86
2022/04/23 07:45:39;;;;;;;15.77;11.18;;;;;;;;;;4953763;29;20138;-87
2022/04/23 07:48:08;;;;;;;17.10;10.98;;;;;;;;;;4936902;29;20125;-88
2022/04/23 07:50:36;;;;;;;13.07;11.13;;;;;;;;;;4936309;29;20086;-86
2022/04/23 07:53:04;;;;;;;15.48;10.48;;;;;;;;;;4953531;29;20077;-86
2022/04/23 07:55:37;;;;;;;13.85;10.27;;;;;;;;;;4936661;29;20974;-87
2022/04/23 07:58:06;;;;;;;12.32;9.73;;;;;;;;;;4951949;28;20358;-88
2022/04/23 08:00:36;;;;;;;16.83;10.50;;;;;;;;;;4936177;29;20047;-87
2022/04/23 08:03:04;;;;;;;11.40;9.32;;;;;;;;;;4950755;29;20885;-87
2022/04/23 08:05:32;;;;;;;11.57;8.75;;;;;;;;;;4929972;29;20412;-87
2022/04/23 08:08:01;;;;;;;10.73;8.75;;;;;;;;;;4951215;28;20523;-86
2022/04/23 08:10:28;;;;;;;11.18;9.30;;;;;;;;;;4943176;28;20058;-87
2022/04/23 08:12:56;;;;;;;9.38;7.88;;;;;;;;;;4949404;29;20138;-86
2022/04/23 08:15:26;;;;;;;14.60;8.43;;;;;;;;;;4953241;29;20059;-88
2022/04/23 08:17:54;;;;;;;15.85;8.43;;;;;;;;;;4952345;28;20507;-88
2022/04/23 08:20:21;;;;;;;8.50;7.40;;;;;;;;;;4942403;29;20061;-86
2022/04/23 08:22:48;;;;;;;9.98;7.82;;;;;;;;;;4935961;29;20185;-87
2022/04/23 08:25:16;;;;;;;10.65;8.75;;;;;;;;;;4939041;29;20070;-87
2022/04/23 08:27:50;;;;;;;11.52;8.63;;;;;;;;;;4941049;29;20780;-85
2022/04/23 08:30:36;;;;;;;10.90;9.23;;;;;;;;;;4937774;29;20047;-89
2022/04/23 08:33:04;;;;;;;10.02;8.98;;;;;;;;;;4941829;29;20122;-86
2022/04/23 08:35:32;;;;;;;12.93;9.38;;;;;;;;;;4947278;29;20051;-90
2022/04/23 08:38:00;;;;;;;13.32;9.35;;;;;;;;;;4936472;29;20074;-88
2022/04/23 08:40:37;;;;;;;12.23;8.90;;;;;;;;;;4937250;29;20640;-89
2022/04/23 08:43:06;;;;;;;20.67;9.13;;;;;;;;;;4939005;29;20103;-91
2022/04/23 08:45:36;;;;;;;11.98;9.55;;;;;;;;;;4944448;29;20054;-93
2022/04/23 08:48:14;;;;;;;18.17;9.60;;;;;;;;;;4959084;29;20051;-92
2022/04/23 08:50:43;;;;;;;19.70;9.63;;;;;;;;;;4940286;29;20051;-91
2022/04/23 08:53:17;;;;;;;10.57;8.98;;;;;;;;;;4939093;29;20099;-92
2022/04/23 08:55:55;;;;;;;14.15;9.30;;;;;;;;;;4940568;29;20047;-92
2022/04/23 08:58:26;;;;;;;11.40;8.88;;;;;;;;;;4943478;29;20498;-91
2022/04/23 09:00:54;;;;;;;11.13;10.02;;;;;;;;;;4942360;29;20078;-90
2022/04/23 09:03:21;;;;;;;13.65;10.88;;;;;;;;;;4940698;29;20051;-90
2022/04/23 09:05:51;;;;;;;18.15;10.10;;;;;;;;;;4942138;29;20050;-90
2022/04/23 09:08:20;;;;;;;10.82;9.73;;;;;;;;;;4938835;29;20047;-92
2022/04/23 09:10:51;;;;;;;13.32;9.45;;;;;;;;;;4936591;29;20071;-91
2022/04/23 09:13:29;;;;;;;15.23;9.15;;;;;;;;;;4931371;29;20103;-90
2022/04/23 09:24:51;;;;;;;12.05;9.40;;;;;;;;;;4958695;29;20063;-91
2022/04/23 09:27:21;;;;;;;14.50;10.27;;;;;;;;;;4959079;29;20070;-90
2022/04/23 09:30:20;;;;;;;10.82;9.00;;;;;;;;;;4938551;29;20055;-90
2022/04/23 09:32:58;;;;;;;10.38;9.25;;;;;;;;;;4900838;29;20051;-91
2022/04/23 09:35:25;;;;;;;25.50;14.20;;;;;;;;;;4933788;29;20110;-91
2022/04/23 09:40:40;;;;;;;10.43;9.32;;;;;;;;;;4950726;29;20111;-91
2022/04/23 09:43:09;;;;;;;11.45;9.88;;;;;;;;;;4942488;29;20051;-91
2022/04/23 09:45:41;;;;;;;11.80;10.25;;;;;;;;;;4934751;29;20051;-91
2022/04/23 09:48:11;;;;;;;12.77;9.23;;;;;;;;;;4938816;29;20043;-92
2022/04/23 09:50:39;;;;;;;28.10;9.75;;;;;;;;;;4927558;29;20534;-91
2022/04/23 09:53:13;;;;;;;10.75;8.48;;;;;;;;;;4937679;29;20051;-91
2022/04/23 09:55:41;;;;;;;15.38;10.00;;;;;;;;;;4938955;29;20047;-93
2022/04/23 09:58:11;;;;;;;12.40;9.13;;;;;;;;;;4938114;29;20060;-92
2022/04/23 10:00:42;;;;;;;12.52;8.13;;;;;;;;;;4936436;29;20493;-92
2022/04/23 10:03:10;;;;;;;9.57;8.63;;;;;;;;;;4937225;29;20067;-91
2022/04/23 10:05:44;;;;;;;10.10;9.10;;;;;;;;;;4936779;29;20056;-93
2022/04/23 10:08:15;;;;;;;10.93;8.38;;;;;;;;;;4937107;29;20067;-94
2022/04/23 10:10:48;;;;;;;9.30;8.05;;;;;;;;;;4936722;29;20052;-93
2022/04/23 10:13:17;;;;;;;10.50;9.20;;;;;;;;;;4938782;29;20393;-90
2022/04/23 10:15:46;;;;;;;9.10;7.57;;;;;;;;;;4943646;29;20074;-90
2022/04/23 10:18:16;;;;;;;10.65;7.88;;;;;;;;;;4953978;29;20067;-91
2022/04/23 10:20:55;;;;;;;13.93;9.07;;;;;;;;;;4922122;29;20062;-91
2022/04/23 10:23:26;;;;;;;10.35;7.85;;;;;;;;;;4938325;29;20139;-94
2022/04/23 10:26:24;;;;;;;7.70;6.82;;;;;;;;;;4938699;29;20686;-91
2022/04/23 10:28:52;;;;;;;9.48;7.00;;;;;;;;;;4940307;29;20497;-93
2022/04/23 10:31:21;;;;;;;7.97;6.82;;;;;;;;;;4938412;29;20055;-90
2022/04/23 10:33:52;;;;;;;6.28;5.68;;;;;;;;;;4941599;29;20397;-92
2022/04/23 10:36:23;;;;;;;8.55;6.03;;;;;;;;;;4943981;29;20130;-92
2022/04/23 10:39:11;;;;;;;9.27;6.13;;;;;;;;;;4941397;29;20055;-91
2022/04/23 10:41:39;;;;;;;6.70;5.57;;;;;;;;;;4961330;28;20064;-91
2022/04/23 10:44:09;;;;;;;7.15;6.13;;;;;;;;;;4952513;29;20063;-89
2022/04/23 10:46:42;;;;;;;8.27;6.30;;;;;;;;;;4944535;29;20047;-90
2022/04/23 10:49:32;;;;;;;9.55;6.18;;;;;;;;;;4957140;29;20058;-92
2022/04/23 10:52:38;;;;;;;6.38;5.35;;;;;;;;;;4930421;29;20055;-93
2022/04/23 10:55:21;;;;;;;6.75;5.65;;;;;;;;;;4945952;28;20058;-90
2022/04/23 10:57:54;;;;;;;6.25;4.60;;;;;;;;;;4942980;29;20054;-93
2022/04/23 11:00:30;;;;;;;5.13;4.63;;;;;;;;;;4942007;29;20106;-93
2022/04/23 11:03:11;;;;;;;6.00;5.22;;;;;;;;;;4957440;29;20094;-92
2022/04/23 11:14:48;;;;;;;8.55;4.93;;;;;;;;;;4961318;29;20059;-96
2022/04/23 11:19:58;;;;;;;6.95;5.43;;;;;;;;;;4947819;29;20051;-77
2022/04/23 11:22:27;;;;;;;10.45;5.90;;;;;;;;;;4933052;29;20082;-80
2022/04/23 11:24:54;;;;;;;8.65;5.20;;;;;;;;;;4949561;29;20078;-79
2022/04/23 11:27:28;;;;;;;7.80;6.50;;;;;;;;;;4949181;29;20079;-79
2022/04/23 11:29:55;;;;;;;8.03;6.47;;;;;;;;;;4949365;29;20572;-79
2022/04/23 11:32:26;;;;;;;9.75;6.78;;;;;;;;;;4919331;29;20055;-79
2022/04/23 11:34:56;;;;;;;14.20;8.10;;;;;;;;;;4934510;29;20193;-79
2022/04/23 11:37:40;;;;;;;10.60;7.00;;;;;;;;;;4944115;29;20158;-79
2022/04/23 11:40:16;;;;;;;13.27;7.53;;;;;;;;;;4931019;29;20491;-79
2022/04/23 11:42:45;;;;;;;8.48;7.07;;;;;;;;;;4947331;28;20991;-79
2022/04/23 11:45:13;;;;;;;8.63;5.57;;;;;;;;;;4948313;29;20740;-79
2022/04/23 11:47:40;;;;;;;7.35;6.22;;;;;;;;;;4948150;29;20126;-79
2022/04/23 11:50:14;;;;;;;12.40;6.15;;;;;;;;;;4930639;29;20069;-80
2022/04/23 11:52:42;;;;;;;6.60;5.40;;;;;;;;;;4929196;29;20051;-79
2022/04/23 11:55:22;;;;;;;7.80;5.80;;;;;;;;;;4953308;28;20201;-78
2022/04/23 11:57:56;;;;;;;7.57;5.68;;;;;;;;;;4948643;28;20051;-79
2022/04/23 12:00:24;;;;;;;7.15;5.57;;;;;;;;;;4947775;29;20059;-79
2022/04/23 12:02:52;;;;;;;7.13;5.20;;;;;;;;;;4946803;29;20051;-79
2022/04/23 12:05:23;;;;;;;8.57;5.15;;;;;;;;;;4947484;29;20043;-79
2022/04/23 12:07:51;;;;;;;10.27;5.18;;;;;;;;;;4946558;29;20055;-79
2022/04/23 12:10:25;;;;;;;5.50;4.72;;;;;;;;;;4929737;29;20142;-79
2022/04/23 12:12:52;;;;;;;7.00;5.55;;;;;;;;;;4947938;29;20158;-78
2022/04/23 12:15:20;;;;;;;5.70;4.40;;;;;;;;;;4928125;29;20167;-79
2022/04/23 12:17:49;;;;;;;6.88;4.75;;;;;;;;;;4929869;29;20756;-78
2022/04/23 12:20:20;;;;;;;8.70;4.70;;;;;;;;;;4927458;28;20540;-83
2022/04/23 12:23:00;;;;;;;5.93;4.70;;;;;;;;;;4941383;29;20134;-81
2022/04/23 12:25:28;;;;;;;6.05;4.82;;;;;;;;;;4953652;28;20141;-78
2022/04/23 12:28:03;;;;;;;7.70;4.80;;;;;;;;;;4947918;29;20055;-76
2022/04/23 12:41:34;;;;;;;7.65;5.22;;;;;;;;;;4924264;29;20157;-74
2022/04/23 12:44:18;;;;;;;7.10;5.30;;;;;;;;;;4948391;29;20141;-74
2022/04/23 12:47:01;;;;;;;7.18;5.18;;;;;;;;;;4948966;29;20051;-74
2022/04/23 12:49:50;;;;;;;10.32;5.63;;;;;;;;;;4947514;29;20508;-75
2022/04/23 12:52:20;;;;;;;11.60;4.88;;;;;;;;;;4947470;29;20058;-73
2022/04/23 12:55:06;;;;;;;5.88;4.45;;;;;;;;;;4947850;29;20054;-73
2022/04/23 12:57:34;;;;;;;11.70;5.95;;;;;;;;;;4931521;29;20110;-74
2022/04/23 13:00:01;;;;;;;6.43;5.53;;;;;;;;;;4945574;29;20047;-72
2022/04/23 13:02:35;;;;;;;8.25;5.57;;;;;;;;;;4947615;29;20162;-74
2022/04/23 13:05:05;;;;;;;12.00;6.65;;;;;;;;;;4933571;29;20135;-73
2022/04/23 13:10:19;;;;;;;9.70;6.80;;;;;;;;;;4942123;29;20126;-73
2022/04/23 13:12:46;;;;;;;10.65;6.32;;;;;;;;;;4929662;29;20142;-74
2022/04/23 13:15:15;;;;;;;9.00;6.38;;;;;;;;;;4948494;29;20070;-75
2022/04/23 13:17:43;;;;;;;8.75;6.60;;;;;;;;;;4948296;29;20058;-73
2022/04/23 13:20:11;;;;;;;15.07;7.07;;;;;;;;;;4947257;29;20082;-74
2022/04/23 13:22:41;;;;;;;9.40;7.00;;;;;;;;;;4941215;28;20050;-74
2022/04/23 13:25:15;;;;;;;8.98;6.95;;;;;;;;;;4939190;28;20059;-73
2022/04/23 13:27:43;;;;;;;9.65;7.35;;;;;;;;;;4948048;29;20130;-73
2022/04/23 13:30:11;;;;;;;8.43;6.78;;;;;;;;;;4948253;29;20086;-72
2022/04/23 13:32:39;;;;;;;12.35;6.78;;;;;;;;;;4947552;29;20087;-71
2022/04/23 13:35:08;;;;;;;12.48;6.90;;;;;;;;;;4944939;29;20058;-73
2022/04/23 13:37:35;;;;;;;12.93;7.57;;;;;;;;;;4930643;29;20086;-73
2022/04/23 13:40:03;;;;;;;8.93;6.80;;;;;;;;;;4948588;29;20130;-72
2022/04/23 13:42:30;;;;;;;10.05;7.43;;;;;;;;;;4947419;29;20109;-72
2022/04/23 13:44:58;;;;;;;12.13;6.50;;;;;;;;;;4947680;29;20178;-72
2022/04/23 13:47:25;;;;;;;8.55;5.97;;;;;;;;;;4927979;29;20158;-72
2022/04/23 13:49:52;;;;;;;8.68;6.60;;;;;;;;;;4930996;29;20784;-73
2022/04/23 13:52:20;;;;;;;9.75;6.47;;;;;;;;;;4946930;29;20093;-74
2022/04/23 13:54:47;;;;;;;7.82;6.45;;;;;;;;;;4930603;29;20055;-72
2022/04/23 13:57:14;;;;;;;8.50;6.53;;;;;;;;;;4930938;29;20115;-72
2022/04/23 13:59:41;;;;;;;9.82;6.28;;;;;;;;;;4947964;28;20580;-72
2022/04/23 14:10:27;;;;;;;16.70;6.20;;;;;;;;;;4947761;29;20445;-74
2022/04/23 14:12:55;;;;;;;7.90;5.30;;;;;;;;;;4952385;28;20147;-74
2022/04/23 14:15:22;;;;;;;9.95;5.43;;;;;;;;;;4956539;28;20138;-74
2022/04/23 14:17:49;;;;;;;14.52;6.60;;;;;;;;;;4951299;29;20149;-74
2022/04/23 14:20:17;;;;;;;10.90;5.85;;;;;;;;;;4934223;29;20122;-74
2022/04/23 14:22:44;;;;;;;10.73;6.63;;;;;;;;;;4932735;29;20749;-74
2022/04/23 14:25:12;;;;;;;10.88;6.05;;;;;;;;;;4946912;29;20083;-74
2022/04/23 14:27:39;;;;;;;11.43;5.55;;;;;;;;;;4930211;29;20626;-74
2022/04/23 14:30:08;;;;;;;9.18;6.07;;;;;;;;;;4933622;29;20079;-74
2022/04/23 14:32:36;;;;;;;9.93;5.30;;;;;;;;;;4949561;29;20102;-74
2022/04/23 14:35:03;;;;;;;9.52;5.47;;;;;;;;;;4951068;29;20070;-74
2022/04/23 14:37:33;;;;;;;11.52;5.75;;;;;;;;;;4949672;28;20051;-74
2022/04/23 14:40:00;;;;;;;9.85;5.18;;;;;;;;;;4947334;29;20056;-74
2022/04/23 14:42:28;;;;;;;11.40;5.30;;;;;;;;;;4952279;28;20055;-74
2022/04/23 14:44:55;;;;;;;6.65;4.57;;;;;;;;;;4948920;29;20058;-74
2022/04/23 14:47:23;;;;;;;11.40;4.97;;;;;;;;;;4951409;29;20500;-74
2022/04/23 14:49:50;;;;;;;10.20;5.10;;;;;;;;;;4951383;29;20114;-74
2022/04/23 14:55:04;;;;;;;6.50;4.78;;;;;;;;;;4950760;29;20122;-75
2022/04/23 14:57:31;;;;;;;7.30;4.65;;;;;;;;;;4933153;29;20093;-75
2022/04/23 14:59:58;;;;;;;7.03;4.70;;;;;;;;;;4933462;29;20051;-75
2022/04/23 15:02:26;;;;;;;6.78;3.78;;;;;;;;;;4932253;29;20097;-75
2022/04/23 15:04:53;;;;;;;9.35;5.25;;;;;;;;;;4933727;29;20047;-84
2022/04/23 15:07:20;;;;;;;6.88;4.30;;;;;;;;;;4934969;29;20066;-75
2022/04/23 15:09:48;;;;;;;8.18;4.00;;;;;;;;;;4950290;29;20114;-74
2022/04/23 15:12:15;;;;;;;17.05;5.18;;;;;;;;;;4950411;29;20114;-74
2022/04/23 15:14:42;;;;;;;6.68;4.05;;;;;;;;;;4933369;29;20086;-75
2022/04/23 15:17:10;;;;;;;18.98;4.30;;;;;;;;;;4932366;29;20125;-75
2022/04/23 15:19:38;;;;;;;9.45;4.95;;;;;;;;;;4933765;29;20055;-75
2022/04/23 15:22:06;;;;;;;14.57;4.60;;;;;;;;;;4933516;29;20834;-75
2022/04/23 15:24:33;;;;;;;5.97;3.85;;;;;;;;;;4928673;29;20142;-75
2022/04/23 15:27:00;;;;;;;6.22;4.05;;;;;;;;;;4940618;28;20047;-75
2022/04/23 15:29:27;;;;;;;8.38;3.75;;;;;;;;;;4930933;29;20059;-74
2022/04/23 15:31:55;;;;;;;7.50;4.50;;;;;;;;;;4948219;29;20818;-73